Cavehill, Kentucky
Current Conditions -  °F | °C
As of 10:53 AM on Thursday 23 Oct 2014 (Local Time) from KBWG Reporting Station
Clear Clear  
Wind Chill: 55°   Ceiling: Unl
Heat Index: 55°   Visibility: 10mi
Dew Point: 42°   Wind: 8mph
Humidity: 62%   Direction: 80°E
Pressure: 30.24"   Gusts: NA
Location:  36.9519°N, 86.6076°W
Report Text: KBWG 231553Z AUTO 08007KT 10SM CLR 13/06 A3024 RMK AO2 SLP239 T01280056
Loading
Personal Weather Stations






























Interactive Weather Map
Tropical Storm Tracking
New forecast layout! Learn more

10-Day Weather Forecast

Advertisements
Track Severe Weather on mobile